LIPQ

Trieste–Friuli Venezia Giulia Airport

Trieste, Italy
TAF AMD LIPQ 182000Z 1820/1918 VRB04KT CAVOK BECMG 1910/1912 20010KT BECMG 1916/1918 VRB05KT
Issued Valid From Valid To
Jul-18 @ 20:00 UTC
(2 hours ago)
Jul-18 @ 20:00 UTC
(2 hours ago)
Jul-19 @ 18:00 UTC
(in 20 hours)
Jul-18 @ 20:00 to Jul-19 @ 10:00
TAF AMD LIPQ 182000Z 1820/1918 VRB04KT CAVOK
Wind Visibility Clouds Conditions
Variable at 4 knots 10,000+ meters
  • No significant clouds
Becoming Jul-19 @ 10:00 to Jul-19 @ 16:00
BECMG 1910/1912 20010KT
Wind Visibility Clouds Conditions
200° at 10 knots 10,000+ meters
  • No significant clouds
Becoming Jul-19 @ 16:00 to Jul-19 @ 18:00
BECMG 1916/1918 VRB05KT
Wind Visibility Clouds Conditions
Variable at 5 knots 10,000+ meters
  • No significant clouds
TAF AMD LIPQ 182000Z 1820/1918 VRB04KT CAVOK BECMG 1910/1912 20010KT BECMG 1916/1918 VRB05KT
Issued Jul-18 @ 20:00 UTC
(2 hours ago)
Valid From Jul-18 @ 20:00 UTC
(2 hours ago)
Valid To Jul-19 @ 18:00 UTC
(in 20 hours)
Jul-18 @ 20:00 - Jul-19 @ 10:00
Wind Visibility
Variable at 4 knots 10,000+ meters
Clouds
  • No significant clouds
Conditions
Becoming Jul-19 @ 10:00 - Jul-19 @ 16:00
Wind Visibility
200° at 10 knots 10,000+ meters
Clouds
  • No significant clouds
Conditions
Becoming Jul-19 @ 16:00 - Jul-19 @ 18:00
Wind Visibility
Variable at 5 knots 10,000+ meters
Clouds
  • No significant clouds
Conditions